Terminal Aerodrome Forecast
Issued by NWS Omaha/Valley, NE

Home | Current Version | Previous Version | Text Only | Print | Product List | Glossary Off
Versions: 1 2 3 4 5 6 7 8 9 10 11 12 13 14 15 16 17 18 19 20 21 22 23 24 25 26 27 28 29 30 31 32 33 34 35 36 37 38 39 40 41 42 43 44 45

000
FTUS43 KOAX 022323
TAFOFK
TAF
KOFK 022323Z 0300/0324 08008KT 3SM BR OVC012
      TEMPO 0300/0301 3SM BR OVC006
     FM030600 VRB03KT 2SM BR OVC006
     FM031100 00000KT 1/2SM FG OVC002
     FM031400 VRB03KT 2SM BR OVC006
     FM031800 15006KT P6SM SCT050=

USA.gov is the U.S. government's official web portal to all federal, state and local government web resources and services.